sensor_id;sensor_type;location;lat;lon;timestamp;temperature;humidity
2012;DHT22;1009;51.436;6.972;2023-05-15T13:02:37;19.70;95.50
2012;DHT22;1009;51.436;6.972;2023-05-15T13:05:04;21.00;95.30
2012;DHT22;1009;51.436;6.972;2023-05-15T13:07:31;21.40;91.10
2012;DHT22;1009;51.436;6.972;2023-05-15T13:10:04;21.30;91.70
2012;DHT22;1009;51.436;6.972;2023-05-15T13:12:35;21.30;92.10
2012;DHT22;1009;51.436;6.972;2023-05-15T13:15:21;20.80;89.10
2012;DHT22;1009;51.436;6.972;2023-05-15T13:17:51;20.10;92.10
2012;DHT22;1009;51.436;6.972;2023-05-15T13:20:21;19.90;92.60
2012;DHT22;1009;51.436;6.972;2023-05-15T13:22:47;20.00;92.40
2012;DHT22;1009;51.436;6.972;2023-05-15T13:25:16;20.00;92.00
2012;DHT22;1009;51.436;6.972;2023-05-15T13:27:43;19.60;94.80
2012;DHT22;1009;51.436;6.972;2023-05-15T13:30:11;19.50;98.40
2012;DHT22;1009;51.436;6.972;2023-05-15T13:32:37;19.80;96.60
2012;DHT22;1009;51.436;6.972;2023-05-15T13:35:06;20.40;97.50
2012;DHT22;1009;51.436;6.972;2023-05-15T13:37:34;20.90;92.20
2012;DHT22;1009;51.436;6.972;2023-05-15T13:40:01;20.60;91.80
2012;DHT22;1009;51.436;6.972;2023-05-15T13:42:30;20.60;92.80
2012;DHT22;1009;51.436;6.972;2023-05-15T13:44:57;20.80;91.40
2012;DHT22;1009;51.436;6.972;2023-05-15T13:47:24;20.10;98.80
2012;DHT22;1009;51.436;6.972;2023-05-15T13:49:51;19.60;99.90
2012;DHT22;1009;51.436;6.972;2023-05-15T13:52:19;19.60;99.90
2012;DHT22;1009;51.436;6.972;2023-05-15T13:54:46;19.70;99.90
2012;DHT22;1009;51.436;6.972;2023-05-15T13:57:12;19.60;99.90
2012;DHT22;1009;51.436;6.972;2023-05-15T13:59:39;19.40;99.90
2012;DHT22;1009;51.436;6.972;2023-05-15T14:02:06;19.50;99.90
2012;DHT22;1009;51.436;6.972;2023-05-15T14:04:33;19.90;99.90
2012;DHT22;1009;51.436;6.972;2023-05-15T14:07:02;20.10;99.90
2012;DHT22;1009;51.436;6.972;2023-05-15T14:09:30;20.30;99.90
2012;DHT22;1009;51.436;6.972;2023-05-15T14:11:57;20.50;99.90
2012;DHT22;1009;51.436;6.972;2023-05-15T14:14:24;20.40;99.90
2012;DHT22;1009;51.436;6.972;2023-05-15T14:16:51;19.80;99.90
2012;DHT22;1009;51.436;6.972;2023-05-15T14:19:18;19.30;99.90
2012;DHT22;1009;51.436;6.972;2023-05-15T14:21:44;19.00;99.90
2012;DHT22;1009;51.436;6.972;2023-05-15T14:24:11;18.90;99.90
2012;DHT22;1009;51.436;6.972;2023-05-15T14:26:39;19.00;99.90
2012;DHT22;1009;51.436;6.972;2023-05-15T14:29:08;19.10;99.90
2012;DHT22;1009;51.436;6.972;2023-05-15T14:31:34;18.90;99.90
2012;DHT22;1009;51.436;6.972;2023-05-15T14:34:01;18.90;99.90
2012;DHT22;1009;51.436;6.972;2023-05-15T14:36:30;18.90;99.90
2012;DHT22;1009;51.436;6.972;2023-05-15T14:38:56;19.00;99.90
2012;DHT22;1009;51.436;6.972;2023-05-15T14:41:23;18.80;99.90
2012;DHT22;1009;51.436;6.972;2023-05-15T14:43:51;18.60;99.90
2012;DHT22;1009;51.436;6.972;2023-05-15T14:46:18;18.60;99.90
2012;DHT22;1009;51.436;6.972;2023-05-15T14:48:45;18.70;99.90
2012;DHT22;1009;51.436;6.972;2023-05-15T14:51:12;18.60;99.90
2012;DHT22;1009;51.436;6.972;2023-05-15T14:53:38;18.50;99.90
2012;DHT22;1009;51.436;6.972;2023-05-15T14:56:05;18.30;99.90
2012;DHT22;1009;51.436;6.972;2023-05-15T14:58:32;18.30;99.90
2012;DHT22;1009;51.436;6.972;2023-05-15T15:01:01;18.20;99.90
2012;DHT22;1009;51.436;6.972;2023-05-15T15:03:28;18.10;99.90
2012;DHT22;1009;51.436;6.972;2023-05-15T15:05:55;18.00;99.90
2012;DHT22;1009;51.436;6.972;2023-05-15T15:08:22;18.00;99.90
2012;DHT22;1009;51.436;6.972;2023-05-15T15:10:52;18.00;99.90
2012;DHT22;1009;51.436;6.972;2023-05-15T15:13:25;17.90;99.90
2012;DHT22;1009;51.436;6.972;2023-05-15T15:15:53;17.90;99.90
2012;DHT22;1009;51.436;6.972;2023-05-15T15:18:22;18.00;99.90
2012;DHT22;1009;51.436;6.972;2023-05-15T15:20:48;17.90;99.90
2012;DHT22;1009;51.436;6.972;2023-05-15T15:23:15;17.90;99.90
2012;DHT22;1009;51.436;6.972;2023-05-15T15:25:42;18.10;99.90
2012;DHT22;1009;51.436;6.972;2023-05-15T15:28:09;18.30;99.90
2012;DHT22;1009;51.436;6.972;2023-05-15T15:30:35;18.50;99.90
2012;DHT22;1009;51.436;6.972;2023-05-15T15:33:02;18.50;99.90
2012;DHT22;1009;51.436;6.972;2023-05-15T15:35:30;18.50;99.90
2012;DHT22;1009;51.436;6.972;2023-05-15T15:37:57;18.40;99.90
2012;DHT22;1009;51.436;6.972;2023-05-15T15:40:24;18.50;99.90
2012;DHT22;1009;51.436;6.972;2023-05-15T15:42:50;18.50;99.90
2012;DHT22;1009;51.436;6.972;2023-05-15T15:45:18;18.40;99.90
2012;DHT22;1009;51.436;6.972;2023-05-15T15:47:45;18.40;99.90
2012;DHT22;1009;51.436;6.972;2023-05-15T15:50:11;18.20;99.90
2012;DHT22;1009;51.436;6.972;2023-05-15T15:52:39;18.10;99.90
2012;DHT22;1009;51.436;6.972;2023-05-15T15:55:07;17.90;99.90
2012;DHT22;1009;51.436;6.972;2023-05-15T15:57:35;17.60;99.90
2012;DHT22;1009;51.436;6.972;2023-05-15T16:00:02;17.50;99.90
2012;DHT22;1009;51.436;6.972;2023-05-15T16:02:29;17.40;99.90
2012;DHT22;1009;51.436;6.972;2023-05-15T16:04:56;17.20;99.90
2012;DHT22;1009;51.436;6.972;2023-05-15T16:07:23;17.10;99.90
2012;DHT22;1009;51.436;6.972;2023-05-15T16:09:51;17.00;99.90
2012;DHT22;1009;51.436;6.972;2023-05-15T16:12:18;17.00;99.90
2012;DHT22;1009;51.436;6.972;2023-05-15T16:14:44;16.90;99.90
2012;DHT22;1009;51.436;6.972;2023-05-15T16:17:11;16.90;99.90
2012;DHT22;1009;51.436;6.972;2023-05-15T16:19:38;16.90;99.90
2012;DHT22;1009;51.436;6.972;2023-05-15T16:22:04;16.80;99.90
2012;DHT22;1009;51.436;6.972;2023-05-15T16:24:31;16.80;99.90
2012;DHT22;1009;51.436;6.972;2023-05-15T16:27:01;16.90;99.90
2012;DHT22;1009;51.436;6.972;2023-05-15T16:29:28;16.90;99.90
2012;DHT22;1009;51.436;6.972;2023-05-15T16:31:56;16.90;99.90
2012;DHT22;1009;51.436;6.972;2023-05-15T16:34:23;16.90;99.90
2012;DHT22;1009;51.436;6.972;2023-05-15T16:36:50;17.00;99.90
2012;DHT22;1009;51.436;6.972;2023-05-15T16:39:17;17.00;99.90
2012;DHT22;1009;51.436;6.972;2023-05-15T16:41:43;16.90;99.90
2012;DHT22;1009;51.436;6.972;2023-05-15T16:44:11;16.80;99.90
2012;DHT22;1009;51.436;6.972;2023-05-15T16:46:38;16.70;99.90
2012;DHT22;1009;51.436;6.972;2023-05-15T16:49:05;16.60;99.90
2012;DHT22;1009;51.436;6.972;2023-05-15T16:51:32;16.70;99.90
2012;DHT22;1009;51.436;6.972;2023-05-15T16:53:58;16.70;99.90
2012;DHT22;1009;51.436;6.972;2023-05-15T16:56:25;16.80;99.90
2012;DHT22;1009;51.436;6.972;2023-05-15T16:58:53;16.80;99.90
2012;DHT22;1009;51.436;6.972;2023-05-15T17:01:21;16.80;99.90
2012;DHT22;1009;51.436;6.972;2023-05-15T17:03:48;16.80;99.90
2012;DHT22;1009;51.436;6.972;2023-05-15T17:06:15;16.80;99.90
2012;DHT22;1009;51.436;6.972;2023-05-15T17:08:41;16.80;99.90
2012;DHT22;1009;51.436;6.972;2023-05-15T17:11:09;16.80;99.90
2012;DHT22;1009;51.436;6.972;2023-05-15T17:13:37;16.80;99.90
2012;DHT22;1009;51.436;6.972;2023-05-15T17:16:04;16.90;99.90
2012;DHT22;1009;51.436;6.972;2023-05-15T17:18:32;16.80;99.90
2012;DHT22;1009;51.436;6.972;2023-05-15T17:20:59;16.70;99.90
2012;DHT22;1009;51.436;6.972;2023-05-15T17:23:26;16.60;99.90
2012;DHT22;1009;51.436;6.972;2023-05-15T17:25:52;16.50;99.90
2012;DHT22;1009;51.436;6.972;2023-05-15T17:28:19;16.40;99.90
2012;DHT22;1009;51.436;6.972;2023-05-15T17:30:46;16.30;99.90
2012;DHT22;1009;51.436;6.972;2023-05-15T17:33:13;16.30;99.90
2012;DHT22;1009;51.436;6.972;2023-05-15T17:35:41;16.30;99.90
2012;DHT22;1009;51.436;6.972;2023-05-15T17:38:08;16.10;99.90
2012;DHT22;1009;51.436;6.972;2023-05-15T17:40:34;16.00;99.90
2012;DHT22;1009;51.436;6.972;2023-05-15T17:43:01;15.90;99.90
2012;DHT22;1009;51.436;6.972;2023-05-15T17:45:28;15.80;99.90
2012;DHT22;1009;51.436;6.972;2023-05-15T17:47:54;15.70;99.90
2012;DHT22;1009;51.436;6.972;2023-05-15T17:50:27;15.60;99.90
2012;DHT22;1009;51.436;6.972;2023-05-15T17:52:55;15.50;99.90
2012;DHT22;1009;51.436;6.972;2023-05-15T17:55:21;15.40;99.90
2012;DHT22;1009;51.436;6.972;2023-05-15T17:57:48;15.20;99.90
2012;DHT22;1009;51.436;6.972;2023-05-15T18:00:15;15.10;99.90
2012;DHT22;1009;51.436;6.972;2023-05-15T18:02:42;14.90;99.90
2012;DHT22;1009;51.436;6.972;2023-05-15T18:05:09;14.70;99.90
2012;DHT22;1009;51.436;6.972;2023-05-15T18:07:37;14.50;99.90
2012;DHT22;1009;51.436;6.972;2023-05-15T18:10:07;14.20;99.90
2012;DHT22;1009;51.436;6.972;2023-05-15T18:12:34;14.10;99.90
2012;DHT22;1009;51.436;6.972;2023-05-15T18:15:00;13.90;99.90
2012;DHT22;1009;51.436;6.972;2023-05-15T18:17:31;13.90;99.90
2012;DHT22;1009;51.436;6.972;2023-05-15T18:20:05;13.90;99.90
2012;DHT22;1009;51.436;6.972;2023-05-15T18:22:34;13.80;99.90
2012;DHT22;1009;51.436;6.972;2023-05-15T18:25:07;13.80;99.90
2012;DHT22;1009;51.436;6.972;2023-05-15T18:27:33;13.80;99.90
2012;DHT22;1009;51.436;6.972;2023-05-15T18:30:01;13.70;99.90
2012;DHT22;1009;51.436;6.972;2023-05-15T18:32:28;13.80;99.90
2012;DHT22;1009;51.436;6.972;2023-05-15T18:34:54;13.80;99.90
2012;DHT22;1009;51.436;6.972;2023-05-15T18:37:23;13.90;99.90
2012;DHT22;1009;51.436;6.972;2023-05-15T18:39:50;13.90;99.90
2012;DHT22;1009;51.436;6.972;2023-05-15T18:42:23;13.90;99.90
2012;DHT22;1009;51.436;6.972;2023-05-15T18:44:50;13.90;99.90
2012;DHT22;1009;51.436;6.972;2023-05-15T18:47:17;13.90;99.90
2012;DHT22;1009;51.436;6.972;2023-05-15T18:49:43;14.00;99.90
2012;DHT22;1009;51.436;6.972;2023-05-15T18:52:10;14.10;99.90
2012;DHT22;1009;51.436;6.972;2023-05-15T18:54:39;14.00;99.90
2012;DHT22;1009;51.436;6.972;2023-05-15T18:57:06;13.90;99.90
2012;DHT22;1009;51.436;6.972;2023-05-15T18:59:34;13.90;99.90
2012;DHT22;1009;51.436;6.972;2023-05-15T19:02:01;13.90;99.90
2012;DHT22;1009;51.436;6.972;2023-05-15T19:04:28;13.90;99.90
2012;DHT22;1009;51.436;6.972;2023-05-15T19:06:55;13.90;99.90
2012;DHT22;1009;51.436;6.972;2023-05-15T19:09:21;13.80;99.90
2012;DHT22;1009;51.436;6.972;2023-05-15T19:11:48;13.80;99.90
2012;DHT22;1009;51.436;6.972;2023-05-15T19:14:16;13.80;99.90
2012;DHT22;1009;51.436;6.972;2023-05-15T19:16:44;13.80;99.90
2012;DHT22;1009;51.436;6.972;2023-05-15T19:19:11;13.80;99.90
2012;DHT22;1009;51.436;6.972;2023-05-15T19:21:38;13.70;99.90
2012;DHT22;1009;51.436;6.972;2023-05-15T19:24:05;13.70;99.90
2012;DHT22;1009;51.436;6.972;2023-05-15T19:26:32;13.60;99.90
2012;DHT22;1009;51.436;6.972;2023-05-15T19:28:59;13.60;99.90
2012;DHT22;1009;51.436;6.972;2023-05-15T19:31:25;13.60;99.90
2012;DHT22;1009;51.436;6.972;2023-05-15T19:33:53;13.60;99.90
2012;DHT22;1009;51.436;6.972;2023-05-15T19:36:20;13.70;99.90
2012;DHT22;1009;51.436;6.972;2023-05-15T19:38:47;13.50;99.90
2012;DHT22;1009;51.436;6.972;2023-05-15T19:41:14;13.60;99.90
2012;DHT22;1009;51.436;6.972;2023-05-15T19:43:40;13.50;99.90
2012;DHT22;1009;51.436;6.972;2023-05-15T19:46:10;13.60;99.90
2012;DHT22;1009;51.436;6.972;2023-05-15T19:48:37;13.50;99.90
2012;DHT22;1009;51.436;6.972;2023-05-15T19:51:05;13.50;99.90
2012;DHT22;1009;51.436;6.972;2023-05-15T19:53:32;13.50;99.90
2012;DHT22;1009;51.436;6.972;2023-05-15T19:55:58;13.50;99.90
2012;DHT22;1009;51.436;6.972;2023-05-15T19:58:25;13.50;99.90
2012;DHT22;1009;51.436;6.972;2023-05-15T20:00:52;13.50;99.90
2012;DHT22;1009;51.436;6.972;2023-05-15T20:03:19;13.50;99.90
2012;DHT22;1009;51.436;6.972;2023-05-15T20:05:46;13.50;99.90
2012;DHT22;1009;51.436;6.972;2023-05-15T20:08:14;13.50;99.90
2012;DHT22;1009;51.436;6.972;2023-05-15T20:10:41;13.40;99.90
2012;DHT22;1009;51.436;6.972;2023-05-15T20:13:09;13.40;99.90
2012;DHT22;1009;51.436;6.972;2023-05-15T20:15:35;13.50;99.90
2012;DHT22;1009;51.436;6.972;2023-05-15T20:18:04;13.40;99.90
2012;DHT22;1009;51.436;6.972;2023-05-15T20:20:31;13.40;99.90
2012;DHT22;1009;51.436;6.972;2023-05-15T20:22:58;13.30;99.90
2012;DHT22;1009;51.436;6.972;2023-05-15T20:25:26;13.40;99.90
2012;DHT22;1009;51.436;6.972;2023-05-15T20:27:53;13.30;99.90
2012;DHT22;1009;51.436;6.972;2023-05-15T20:30:26;13.30;99.90
2012;DHT22;1009;51.436;6.972;2023-05-15T20:32:52;13.30;99.90
2012;DHT22;1009;51.436;6.972;2023-05-15T20:35:19;13.30;99.90
2012;DHT22;1009;51.436;6.972;2023-05-15T20:37:48;13.40;99.90
2012;DHT22;1009;51.436;6.972;2023-05-15T20:40:16;13.40;99.90
2012;DHT22;1009;51.436;6.972;2023-05-15T20:42:48;13.50;99.90
2012;DHT22;1009;51.436;6.972;2023-05-15T20:45:15;13.40;99.90
2012;DHT22;1009;51.436;6.972;2023-05-15T20:47:42;13.40;99.90
2012;DHT22;1009;51.436;6.972;2023-05-15T20:50:10;13.30;99.90
2012;DHT22;1009;51.436;6.972;2023-05-15T20:52:36;13.30;99.90
2012;DHT22;1009;51.436;6.972;2023-05-15T20:55:06;13.30;99.90
2012;DHT22;1009;51.436;6.972;2023-05-15T20:57:33;13.20;99.90
2012;DHT22;1009;51.436;6.972;2023-05-15T21:00:01;13.20;99.90
2012;DHT22;1009;51.436;6.972;2023-05-15T21:02:29;13.20;99.90
2012;DHT22;1009;51.436;6.972;2023-05-15T21:04:56;13.20;99.90
2012;DHT22;1009;51.436;6.972;2023-05-15T21:07:22;13.30;99.90
2012;DHT22;1009;51.436;6.972;2023-05-15T21:09:49;13.20;99.90
2012;DHT22;1009;51.436;6.972;2023-05-15T21:12:16;13.10;99.90
2012;DHT22;1009;51.436;6.972;2023-05-15T21:14:42;13.10;99.90
2012;DHT22;1009;51.436;6.972;2023-05-15T21:17:11;13.20;99.90
2012;DHT22;1009;51.436;6.972;2023-05-15T21:19:40;13.20;99.90
2012;DHT22;1009;51.436;6.972;2023-05-15T21:22:07;13.20;99.90
2012;DHT22;1009;51.436;6.972;2023-05-15T21:24:34;13.20;99.90
2012;DHT22;1009;51.436;6.972;2023-05-15T21:27:00;13.20;99.90
2012;DHT22;1009;51.436;6.972;2023-05-15T21:29:30;13.10;99.90
2012;DHT22;1009;51.436;6.972;2023-05-15T21:31:57;13.00;99.90
2012;DHT22;1009;51.436;6.972;2023-05-15T21:34:25;13.10;99.90
2012;DHT22;1009;51.436;6.972;2023-05-15T21:36:52;13.00;99.90
2012;DHT22;1009;51.436;6.972;2023-05-15T21:39:19;13.00;99.90
2012;DHT22;1009;51.436;6.972;2023-05-15T21:41:45;13.00;99.90
2012;DHT22;1009;51.436;6.972;2023-05-15T21:44:12;13.00;99.90
2012;DHT22;1009;51.436;6.972;2023-05-15T21:46:39;12.90;99.90
2012;DHT22;1009;51.436;6.972;2023-05-15T21:49:06;13.00;99.90
2012;DHT22;1009;51.436;6.972;2023-05-15T21:51:34;13.10;99.90
2012;DHT22;1009;51.436;6.972;2023-05-15T21:54:01;13.00;99.90
2012;DHT22;1009;51.436;6.972;2023-05-15T21:56:34;13.10;99.90
2012;DHT22;1009;51.436;6.972;2023-05-15T21:59:01;13.00;99.90
2012;DHT22;1009;51.436;6.972;2023-05-15T22:01:28;13.00;99.90
2012;DHT22;1009;51.436;6.972;2023-05-15T22:03:54;12.90;99.90
2012;DHT22;1009;51.436;6.972;2023-05-15T22:06:21;12.90;99.90
2012;DHT22;1009;51.436;6.972;2023-05-15T22:08:49;13.00;99.90
2012;DHT22;1009;51.436;6.972;2023-05-15T22:11:16;13.00;99.90
2012;DHT22;1009;51.436;6.972;2023-05-15T22:13:43;13.00;99.90
2012;DHT22;1009;51.436;6.972;2023-05-15T22:16:10;13.00;99.90
2012;DHT22;1009;51.436;6.972;2023-05-15T22:18:36;13.00;99.90
2012;DHT22;1009;51.436;6.972;2023-05-15T22:21:03;13.00;99.90
2012;DHT22;1009;51.436;6.972;2023-05-15T22:23:30;13.00;99.90
2012;DHT22;1009;51.436;6.972;2023-05-15T22:25:58;13.00;99.90
2012;DHT22;1009;51.436;6.972;2023-05-15T22:28:28;12.90;99.90
2012;DHT22;1009;51.436;6.972;2023-05-15T22:30:55;12.80;99.90
2012;DHT22;1009;51.436;6.972;2023-05-15T22:33:22;12.70;99.90
2012;DHT22;1009;51.436;6.972;2023-05-15T22:35:49;12.70;99.90
2012;DHT22;1009;51.436;6.972;2023-05-15T22:38:16;12.60;99.90
2012;DHT22;1009;51.436;6.972;2023-05-15T22:40:42;12.50;99.90
2012;DHT22;1009;51.436;6.972;2023-05-15T22:43:11;12.40;99.90
2012;DHT22;1009;51.436;6.972;2023-05-15T22:45:37;12.40;99.90
2012;DHT22;1009;51.436;6.972;2023-05-15T22:48:04;12.30;99.90
2012;DHT22;1009;51.436;6.972;2023-05-15T22:50:31;12.30;99.90
2012;DHT22;1009;51.436;6.972;2023-05-15T22:53:01;12.30;99.90
2012;DHT22;1009;51.436;6.972;2023-05-15T22:55:28;12.30;99.90
2012;DHT22;1009;51.436;6.972;2023-05-15T22:57:54;12.10;99.90
2012;DHT22;1009;51.436;6.972;2023-05-15T23:00:22;12.10;99.90
2012;DHT22;1009;51.436;6.972;2023-05-15T23:02:49;12.10;99.90
2012;DHT22;1009;51.436;6.972;2023-05-15T23:05:19;12.00;99.90
2012;DHT22;1009;51.436;6.972;2023-05-15T23:07:46;12.00;99.90
2012;DHT22;1009;51.436;6.972;2023-05-15T23:10:13;12.00;99.90
2012;DHT22;1009;51.436;6.972;2023-05-15T23:12:39;12.00;99.90
2012;DHT22;1009;51.436;6.972;2023-05-15T23:15:07;11.90;99.90
2012;DHT22;1009;51.436;6.972;2023-05-15T23:17:38;11.90;99.90
2012;DHT22;1009;51.436;6.972;2023-05-15T23:20:05;11.80;99.90
2012;DHT22;1009;51.436;6.972;2023-05-15T23:22:35;11.70;99.90
2012;DHT22;1009;51.436;6.972;2023-05-15T23:25:03;11.60;99.90
2012;DHT22;1009;51.436;6.972;2023-05-15T23:27:30;11.50;99.90
2012;DHT22;1009;51.436;6.972;2023-05-15T23:29:56;11.30;99.90
2012;DHT22;1009;51.436;6.972;2023-05-15T23:32:23;11.30;99.90
2012;DHT22;1009;51.436;6.972;2023-05-15T23:34:51;11.20;99.90
2012;DHT22;1009;51.436;6.972;2023-05-15T23:37:18;11.00;99.90
2012;DHT22;1009;51.436;6.972;2023-05-15T23:39:45;11.00;99.90
2012;DHT22;1009;51.436;6.972;2023-05-15T23:42:15;11.00;99.90
2012;DHT22;1009;51.436;6.972;2023-05-15T23:44:43;11.00;99.90
2012;DHT22;1009;51.436;6.972;2023-05-15T23:47:28;11.00;99.90
2012;DHT22;1009;51.436;6.972;2023-05-15T23:49:57;10.90;99.90
2012;DHT22;1009;51.436;6.972;2023-05-15T23:52:23;11.00;99.90
2012;DHT22;1009;51.436;6.972;2023-05-15T23:54:50;10.90;99.90
2012;DHT22;1009;51.436;6.972;2023-05-15T23:57:17;10.90;99.90
2012;DHT22;1009;51.436;6.972;2023-05-15T23:59:44;11.00;99.90
